ITY1395 LIRF-LIMJ
Flight info
| Callsign | ITY1395 |
|---|---|
| Flight time | 0h 43m |
| Altitude | 30000 |
| Route | GILIO DCT ELB DCT BETEN/N0374F180 M729 IDONA |
| Aircraft | A319/M-SDE3FGHIRWY/LB1 |
Departure
| Time | 2026-04-15 12:49 |
|---|---|
| Airport | Rome–Fiumicino Leonardo da Vinci International Airport (LIRF) |
Arrival
| Time | 2026-04-15 13:32 |
|---|---|
| Airport | Genoa Cristoforo Colombo Airport (LIMJ) |
| Time | Latitude | Longitude | Altitude | Speed | Heading |
|---|---|---|---|---|---|
| 2026-04-15 12:21 | 41.80055 | 12.26536 | 14 ft | 0 kts | 249° |
| 2026-04-15 12:34 | 41.80055 | 12.26537 | 14 ft | 0 kts | 249° |
| 2026-04-15 12:43 | 41.80050 | 12.26517 | 16 ft | 5 kts | 250° |
| 2026-04-15 12:43 | 41.80069 | 12.26469 | 15 ft | 9 kts | 336° |
| 2026-04-15 12:43 | 41.80137 | 12.26428 | 14 ft | 12 kts | 304° |
| 2026-04-15 12:44 | 41.80116 | 12.26305 | 14 ft | 16 kts | 275° |
| 2026-04-15 12:44 | 41.80158 | 12.26168 | 16 ft | 17 kts | 295° |
| 2026-04-15 12:44 | 41.80224 | 12.26051 | 14 ft | 16 kts | 355° |
| 2026-04-15 12:44 | 41.80332 | 12.26106 | 14 ft | 17 kts | 25° |
| 2026-04-15 12:45 | 41.80439 | 12.26171 | 16 ft | 17 kts | 19° |
| 2026-04-15 12:45 | 41.80530 | 12.26243 | 16 ft | 16 kts | 66° |
| 2026-04-15 12:45 | 41.80570 | 12.26389 | 16 ft | 17 kts | 70° |
| 2026-04-15 12:45 | 41.80612 | 12.26542 | 17 ft | 18 kts | 70° |
| 2026-04-15 12:46 | 41.80656 | 12.26701 | 15 ft | 19 kts | 70° |
| 2026-04-15 12:46 | 41.80702 | 12.26871 | 14 ft | 20 kts | 70° |
| 2026-04-15 12:46 | 41.80744 | 12.27017 | 13 ft | 14 kts | 61° |
| 2026-04-15 12:46 | 41.80825 | 12.27034 | 13 ft | 14 kts | 339° |
| 2026-04-15 12:47 | 41.80882 | 12.27006 | 13 ft | 0 kts | 341° |
| 2026-04-15 12:47 | 41.80909 | 12.26993 | 13 ft | 10 kts | 340° |
| 2026-04-15 12:47 | 41.80954 | 12.26915 | 13 ft | 4 kts | 251° |
| 2026-04-15 12:48 | 41.80953 | 12.26910 | 13 ft | 0 kts | 251° |
| 2026-04-15 12:48 | 41.80930 | 12.26825 | 14 ft | 36 kts | 250° |
| 2026-04-15 12:48 | 41.80750 | 12.26170 | 20 ft | 110 kts | 250° |
| 2026-04-15 12:48 | 41.80417 | 12.24946 | 70 ft | 161 kts | 251° |
| 2026-04-15 12:49 | 41.80043 | 12.23540 | 780 ft | 160 kts | 252° |
| 2026-04-15 12:49 | 41.79645 | 12.22144 | 1537 ft | 160 kts | 253° |
| 2026-04-15 12:49 | 41.79316 | 12.20665 | 2020 ft | 175 kts | 266° |
| 2026-04-15 12:49 | 41.79267 | 12.18934 | 2391 ft | 199 kts | 270° |
| 2026-04-15 12:50 | 41.79224 | 12.16961 | 2972 ft | 224 kts | 270° |
| 2026-04-15 12:50 | 41.79172 | 12.14764 | 3504 ft | 248 kts | 270° |
| 2026-04-15 12:50 | 41.79113 | 12.12346 | 4150 ft | 267 kts | 270° |
| 2026-04-15 12:50 | 41.79047 | 12.09822 | 5094 ft | 275 kts | 269° |
| 2026-04-15 12:51 | 41.79007 | 12.07236 | 6049 ft | 281 kts | 270° |
| 2026-04-15 12:51 | 41.79004 | 12.04595 | 6998 ft | 286 kts | 272° |
| 2026-04-15 12:51 | 41.79425 | 12.01985 | 7875 ft | 291 kts | 296° |
| 2026-04-15 12:51 | 41.80550 | 11.99729 | 8819 ft | 293 kts | 310° |
| 2026-04-15 12:52 | 41.81828 | 11.97579 | 9755 ft | 298 kts | 310° |
| 2026-04-15 12:52 | 41.83144 | 11.95376 | 10452 ft | 312 kts | 310° |
| 2026-04-15 12:52 | 41.84548 | 11.93022 | 10823 ft | 334 kts | 310° |
| 2026-04-15 12:52 | 41.86021 | 11.90538 | 11505 ft | 344 kts | 310° |
| 2026-04-15 12:53 | 41.87521 | 11.88002 | 12305 ft | 349 kts | 310° |
| 2026-04-15 12:53 | 41.89042 | 11.85425 | 13113 ft | 354 kts | 310° |
| 2026-04-15 12:53 | 41.90585 | 11.82804 | 13899 ft | 360 kts | 310° |
| 2026-04-15 12:53 | 41.92123 | 11.80189 | 14586 ft | 364 kts | 310° |
| 2026-04-15 12:54 | 41.93701 | 11.77501 | 15289 ft | 368 kts | 310° |
| 2026-04-15 12:54 | 41.95294 | 11.74787 | 15995 ft | 372 kts | 309° |
| 2026-04-15 12:54 | 41.96905 | 11.72043 | 16698 ft | 376 kts | 309° |
| 2026-04-15 12:54 | 41.98536 | 11.69271 | 17396 ft | 380 kts | 309° |
| 2026-04-15 12:55 | 42.00180 | 11.66471 | 18098 ft | 383 kts | 310° |
| 2026-04-15 12:55 | 42.01839 | 11.63644 | 18765 ft | 386 kts | 310° |
| 2026-04-15 12:55 | 42.03512 | 11.60792 | 19362 ft | 390 kts | 310° |
| 2026-04-15 12:55 | 42.05199 | 11.57910 | 19964 ft | 394 kts | 310° |
| 2026-04-15 12:56 | 42.06906 | 11.54990 | 20559 ft | 399 kts | 310° |
| 2026-04-15 12:56 | 42.08629 | 11.52039 | 21136 ft | 404 kts | 310° |
| 2026-04-15 12:56 | 42.10377 | 11.49044 | 21716 ft | 408 kts | 310° |
| 2026-04-15 12:56 | 42.12136 | 11.46026 | 22294 ft | 413 kts | 310° |
| 2026-04-15 12:57 | 42.13921 | 11.42962 | 22872 ft | 417 kts | 310° |
| 2026-04-15 12:57 | 42.15722 | 11.39869 | 23434 ft | 422 kts | 310° |
| 2026-04-15 12:57 | 42.17543 | 11.36738 | 23855 ft | 426 kts | 310° |
| 2026-04-15 12:57 | 42.19370 | 11.33590 | 23961 ft | 427 kts | 310° |
| 2026-04-15 12:58 | 42.21194 | 11.30439 | 23993 ft | 426 kts | 310° |
| 2026-04-15 12:58 | 42.23024 | 11.27279 | 24243 ft | 428 kts | 310° |
| 2026-04-15 12:58 | 42.24860 | 11.24109 | 24794 ft | 429 kts | 310° |
| 2026-04-15 12:58 | 42.26705 | 11.20919 | 25287 ft | 432 kts | 309° |
| 2026-04-15 12:59 | 42.30419 | 11.14480 | 26223 ft | 438 kts | 309° |
| 2026-04-15 12:59 | 42.32292 | 11.11231 | 26667 ft | 441 kts | 309° |
| 2026-04-15 12:59 | 42.34183 | 11.07948 | 27103 ft | 444 kts | 309° |
| 2026-04-15 13:00 | 42.36082 | 11.04647 | 27534 ft | 447 kts | 309° |
| 2026-04-15 13:00 | 42.37997 | 11.01312 | 27981 ft | 450 kts | 309° |
| 2026-04-15 13:00 | 42.39920 | 10.97960 | 28412 ft | 453 kts | 309° |
| 2026-04-15 13:00 | 42.41838 | 10.94609 | 28839 ft | 456 kts | 309° |
| 2026-04-15 13:01 | 42.43785 | 10.91203 | 29266 ft | 459 kts | 309° |
| 2026-04-15 13:01 | 42.45741 | 10.87778 | 29691 ft | 461 kts | 309° |
| 2026-04-15 13:01 | 42.47712 | 10.84328 | 29965 ft | 464 kts | 309° |
| 2026-04-15 13:01 | 42.49659 | 10.80920 | 29997 ft | 449 kts | 309° |
| 2026-04-15 13:02 | 42.53418 | 10.74328 | 30003 ft | 438 kts | 309° |
| 2026-04-15 13:02 | 42.57136 | 10.67804 | 30006 ft | 437 kts | 309° |
| 2026-04-15 13:03 | 42.60841 | 10.61267 | 30009 ft | 436 kts | 309° |
| 2026-04-15 13:03 | 42.64533 | 10.54729 | 30014 ft | 435 kts | 308° |
| 2026-04-15 13:04 | 42.68218 | 10.48199 | 30012 ft | 434 kts | 308° |
| 2026-04-15 13:04 | 42.71966 | 10.41774 | 30024 ft | 433 kts | 315° |
| 2026-04-15 13:05 | 42.76707 | 10.36822 | 30002 ft | 429 kts | 333° |
| 2026-04-15 13:05 | 42.81940 | 10.32925 | 30009 ft | 428 kts | 332° |
| 2026-04-15 13:06 | 42.87155 | 10.28989 | 30011 ft | 428 kts | 332° |
| 2026-04-15 13:06 | 42.91483 | 10.25706 | 30024 ft | 428 kts | 332° |
| 2026-04-15 13:07 | 42.96698 | 10.21760 | 30028 ft | 428 kts | 332° |
| 2026-04-15 13:07 | 43.01898 | 10.17820 | 30054 ft | 426 kts | 332° |
| 2026-04-15 13:08 | 43.07063 | 10.13891 | 30071 ft | 423 kts | 332° |
| 2026-04-15 13:08 | 43.12190 | 10.09985 | 30075 ft | 421 kts | 332° |
| 2026-04-15 13:09 | 43.17296 | 10.06087 | 30071 ft | 419 kts | 332° |
| 2026-04-15 13:09 | 43.22381 | 10.02197 | 30066 ft | 418 kts | 332° |
| 2026-04-15 13:10 | 43.27453 | 9.98301 | 30070 ft | 417 kts | 332° |
| 2026-04-15 13:10 | 43.32513 | 9.94422 | 30077 ft | 416 kts | 332° |
| 2026-04-15 13:11 | 43.37564 | 9.90543 | 30074 ft | 416 kts | 332° |
| 2026-04-15 13:11 | 43.42597 | 9.86667 | 29774 ft | 412 kts | 332° |
| 2026-04-15 13:12 | 43.45070 | 9.84760 | 29030 ft | 412 kts | 332° |
| 2026-04-15 13:12 | 43.47562 | 9.82834 | 28445 ft | 409 kts | 332° |
| 2026-04-15 13:12 | 43.50021 | 9.80931 | 28058 ft | 401 kts | 332° |
| 2026-04-15 13:12 | 43.52437 | 9.79058 | 27574 ft | 396 kts | 332° |
| 2026-04-15 13:13 | 43.54826 | 9.77206 | 27049 ft | 393 kts | 332° |
| 2026-04-15 13:13 | 43.57198 | 9.75366 | 26529 ft | 390 kts | 332° |
| 2026-04-15 13:13 | 43.59559 | 9.73536 | 26025 ft | 388 kts | 332° |
| 2026-04-15 13:13 | 43.61910 | 9.71711 | 25539 ft | 387 kts | 332° |
| 2026-04-15 13:14 | 43.64247 | 9.69894 | 25107 ft | 384 kts | 332° |
| 2026-04-15 13:14 | 43.66562 | 9.68095 | 24641 ft | 382 kts | 332° |
| 2026-04-15 13:14 | 43.68878 | 9.66295 | 24157 ft | 380 kts | 331° |
| 2026-04-15 13:14 | 43.71178 | 9.64506 | 23671 ft | 379 kts | 331° |
| 2026-04-15 13:15 | 43.73473 | 9.62717 | 23121 ft | 378 kts | 331° |
| 2026-04-15 13:15 | 43.75749 | 9.60938 | 22620 ft | 375 kts | 331° |
| 2026-04-15 13:15 | 43.78012 | 9.59167 | 22135 ft | 372 kts | 331° |
| 2026-04-15 13:15 | 43.80258 | 9.57411 | 21670 ft | 369 kts | 331° |
| 2026-04-15 13:16 | 43.82481 | 9.55673 | 21203 ft | 366 kts | 331° |
| 2026-04-15 13:16 | 43.84688 | 9.53946 | 20751 ft | 363 kts | 331° |
| 2026-04-15 13:16 | 43.86874 | 9.52230 | 20304 ft | 360 kts | 331° |
| 2026-04-15 13:16 | 43.89046 | 9.50520 | 19857 ft | 357 kts | 331° |
| 2026-04-15 13:17 | 43.91194 | 9.48829 | 19420 ft | 354 kts | 331° |
| 2026-04-15 13:17 | 43.93336 | 9.47144 | 18989 ft | 352 kts | 331° |
| 2026-04-15 13:17 | 43.95449 | 9.45440 | 18574 ft | 349 kts | 327° |
| 2026-04-15 13:17 | 43.97287 | 9.43330 | 18162 ft | 348 kts | 315° |
| 2026-04-15 13:18 | 43.98772 | 9.40684 | 17696 ft | 347 kts | 302° |
| 2026-04-15 13:18 | 43.99822 | 9.37633 | 17221 ft | 347 kts | 290° |
| 2026-04-15 13:18 | 44.00574 | 9.34495 | 16766 ft | 345 kts | 289° |
| 2026-04-15 13:18 | 44.01333 | 9.31332 | 16317 ft | 344 kts | 290° |
| 2026-04-15 13:19 | 44.02088 | 9.28193 | 15881 ft | 343 kts | 290° |
| 2026-04-15 13:19 | 44.02843 | 9.25059 | 15470 ft | 341 kts | 289° |
| 2026-04-15 13:19 | 44.03595 | 9.21943 | 15059 ft | 339 kts | 289° |
| 2026-04-15 13:19 | 44.04342 | 9.18839 | 14669 ft | 337 kts | 289° |
| 2026-04-15 13:20 | 44.05081 | 9.15760 | 14247 ft | 336 kts | 289° |
| 2026-04-15 13:20 | 44.05818 | 9.12684 | 13846 ft | 334 kts | 289° |
| 2026-04-15 13:20 | 44.06545 | 9.09633 | 13456 ft | 331 kts | 289° |
| 2026-04-15 13:20 | 44.07262 | 9.06614 | 13059 ft | 327 kts | 289° |
| 2026-04-15 13:21 | 44.07974 | 9.03615 | 12647 ft | 325 kts | 289° |
| 2026-04-15 13:21 | 44.08678 | 9.00646 | 12217 ft | 323 kts | 290° |
| 2026-04-15 13:21 | 44.09381 | 8.97687 | 11786 ft | 321 kts | 290° |
| 2026-04-15 13:21 | 44.10079 | 8.94748 | 11384 ft | 319 kts | 289° |
| 2026-04-15 13:22 | 44.10772 | 8.91825 | 10963 ft | 317 kts | 290° |
| 2026-04-15 13:22 | 44.11458 | 8.88922 | 10553 ft | 315 kts | 290° |
| 2026-04-15 13:22 | 44.12140 | 8.86025 | 10237 ft | 310 kts | 290° |
| 2026-04-15 13:22 | 44.12797 | 8.83229 | 10115 ft | 299 kts | 290° |
| 2026-04-15 13:23 | 44.13459 | 8.80517 | 9821 ft | 293 kts | 294° |
| 2026-04-15 13:23 | 44.14365 | 8.78021 | 9445 ft | 288 kts | 300° |
| 2026-04-15 13:23 | 44.15307 | 8.75580 | 8898 ft | 285 kts | 300° |
| 2026-04-15 13:23 | 44.16245 | 8.73146 | 8499 ft | 284 kts | 301° |
| 2026-04-15 13:24 | 44.17173 | 8.70730 | 8061 ft | 281 kts | 301° |
| 2026-04-15 13:24 | 44.18087 | 8.68348 | 7626 ft | 278 kts | 299° |
| 2026-04-15 13:24 | 44.18988 | 8.65981 | 7214 ft | 275 kts | 300° |
| 2026-04-15 13:24 | 44.19881 | 8.63632 | 6802 ft | 273 kts | 300° |
| 2026-04-15 13:25 | 44.20771 | 8.61294 | 6390 ft | 271 kts | 300° |
| 2026-04-15 13:25 | 44.21744 | 8.59073 | 5953 ft | 265 kts | 315° |
| 2026-04-15 13:25 | 44.23203 | 8.57714 | 5533 ft | 251 kts | 344° |
| 2026-04-15 13:25 | 44.24882 | 8.57518 | 5103 ft | 239 kts | 10° |
| 2026-04-15 13:26 | 44.26456 | 8.58082 | 4672 ft | 230 kts | 15° |
| 2026-04-15 13:26 | 44.27974 | 8.58655 | 4240 ft | 222 kts | 14° |
| 2026-04-15 13:26 | 44.29450 | 8.59209 | 3811 ft | 216 kts | 15° |
| 2026-04-15 13:26 | 44.30880 | 8.59741 | 3442 ft | 208 kts | 15° |
| 2026-04-15 13:27 | 44.32255 | 8.60249 | 3110 ft | 200 kts | 15° |
| 2026-04-15 13:27 | 44.33597 | 8.60744 | 2835 ft | 198 kts | 15° |
| 2026-04-15 13:27 | 44.34838 | 8.61464 | 2710 ft | 190 kts | 34° |
| 2026-04-15 13:27 | 44.35721 | 8.62776 | 2612 ft | 184 kts | 56° |
| 2026-04-15 13:28 | 44.36347 | 8.64302 | 2530 ft | 179 kts | 57° |
| 2026-04-15 13:28 | 44.36959 | 8.65781 | 2549 ft | 169 kts | 56° |
| 2026-04-15 13:28 | 44.37526 | 8.67164 | 2468 ft | 158 kts | 57° |
| 2026-04-15 13:28 | 44.38042 | 8.68429 | 2385 ft | 143 kts | 56° |
| 2026-04-15 13:29 | 44.38532 | 8.69601 | 2212 ft | 137 kts | 54° |
| 2026-04-15 13:29 | 44.39003 | 8.70738 | 2005 ft | 135 kts | 56° |
| 2026-04-15 13:29 | 44.39463 | 8.71859 | 1811 ft | 131 kts | 56° |
| 2026-04-15 13:29 | 44.39929 | 8.72979 | 1559 ft | 133 kts | 54° |
| 2026-04-15 13:30 | 44.40392 | 8.74075 | 1346 ft | 129 kts | 56° |
| 2026-04-15 13:30 | 44.40851 | 8.75163 | 1178 ft | 131 kts | 55° |
| 2026-04-15 13:30 | 44.41280 | 8.76309 | 961 ft | 134 kts | 59° |
| 2026-04-15 13:30 | 44.41644 | 8.77472 | 769 ft | 130 kts | 62° |
| 2026-04-15 13:31 | 44.41854 | 8.78729 | 671 ft | 134 kts | 76° |
| 2026-04-15 13:31 | 44.41902 | 8.80071 | 415 ft | 144 kts | 87° |
| 2026-04-15 13:31 | 44.41712 | 8.81450 | 236 ft | 141 kts | 93° |
| 2026-04-15 13:31 | 44.41470 | 8.82767 | 42 ft | 139 kts | 101° |
| 2026-04-15 13:32 | 44.41245 | 8.83941 | 20 ft | 106 kts | 105° |
| 2026-04-15 13:32 | 44.41095 | 8.84692 | 21 ft | 48 kts | 107° |
| 2026-04-15 13:32 | 44.41097 | 8.84841 | 19 ft | 10 kts | 37° |
| 2026-04-15 13:32 | 44.41178 | 8.84896 | 20 ft | 15 kts | 15° |
| 2026-04-15 13:33 | 44.41264 | 8.84928 | 22 ft | 13 kts | 15° |
| 2026-04-15 13:33 | 44.41336 | 8.84960 | 22 ft | 8 kts | 32° |
| 2026-04-15 13:33 | 44.41345 | 8.85007 | 22 ft | 3 kts | 69° |
| 2026-04-15 13:33 | 44.41371 | 8.85021 | 20 ft | 6 kts | 13° |
| 2026-04-15 13:34 | 44.41412 | 8.85037 | 20 ft | 2 kts | 15° |
| 2026-04-15 13:34 | 44.41418 | 8.85039 | 20 ft | 1 kts | 14° |
| 2026-04-15 13:34 | 44.41421 | 8.85040 | 20 ft | 0 kts | 14° |